Terminal Aerodrome Forecast
Issued by NWS

Home | Current Version | Previous Version | Text Only | Print | Product List | Glossary On
Versions: 1 2 3 4 5 6 7 8 9 10 11 12 13 14 15 16 17 18 19 20 21
000
FTUS42 KGSP 222300
TAFGMU
TAF
KGMU 222334Z 2300/2324 07007KT P6SM SCT040 BKN080
     FM230400 00000KT P6SM BKN029
     FM230600 00000KT 6SM BR BKN017
     FM231400 00000KT P6SM BKN023
     FM231700 21006KT P6SM BKN035 PROB30 2318/2324 4SM TSRA
      BKN025CB=

USA.gov is the U.S. government's official web portal to all federal, state and local government web resources and services.